sensor_id;sensor_type;location;lat;lon;timestamp;P1;durP1;ratioP1;P2;durP2;ratioP2
81367;SDS011;70823;50.056;14.398;2024-01-15T00:01:11;3.00;;;2.10;;
81367;SDS011;70823;50.056;14.398;2024-01-15T00:03:36;3.73;;;2.70;;
81367;SDS011;70823;50.056;14.398;2024-01-15T00:06:01;4.50;;;2.87;;
81367;SDS011;70823;50.056;14.398;2024-01-15T00:08:27;3.97;;;2.38;;
81367;SDS011;70823;50.056;14.398;2024-01-15T00:10:52;3.50;;;2.47;;
81367;SDS011;70823;50.056;14.398;2024-01-15T00:13:17;4.43;;;2.90;;
81367;SDS011;70823;50.056;14.398;2024-01-15T00:15:42;3.73;;;2.60;;
81367;SDS011;70823;50.056;14.398;2024-01-15T00:18:08;4.25;;;2.95;;
81367;SDS011;70823;50.056;14.398;2024-01-15T00:20:34;4.45;;;2.70;;
81367;SDS011;70823;50.056;14.398;2024-01-15T00:22:59;4.75;;;3.00;;
81367;SDS011;70823;50.056;14.398;2024-01-15T00:25:24;4.10;;;2.60;;
81367;SDS011;70823;50.056;14.398;2024-01-15T00:27:50;3.60;;;2.50;;
81367;SDS011;70823;50.056;14.398;2024-01-15T00:30:15;4.77;;;2.60;;
81367;SDS011;70823;50.056;14.398;2024-01-15T00:32:40;3.60;;;2.30;;
81367;SDS011;70823;50.056;14.398;2024-01-15T00:35:06;3.90;;;2.67;;
81367;SDS011;70823;50.056;14.398;2024-01-15T00:37:31;4.60;;;2.70;;
81367;SDS011;70823;50.056;14.398;2024-01-15T00:39:56;4.33;;;2.67;;
81367;SDS011;70823;50.056;14.398;2024-01-15T00:42:22;3.78;;;2.55;;
81367;SDS011;70823;50.056;14.398;2024-01-15T00:44:47;3.90;;;2.50;;
81367;SDS011;70823;50.056;14.398;2024-01-15T00:47:12;4.22;;;2.55;;
81367;SDS011;70823;50.056;14.398;2024-01-15T00:49:38;3.83;;;2.40;;
81367;SDS011;70823;50.056;14.398;2024-01-15T00:52:03;4.07;;;2.50;;
81367;SDS011;70823;50.056;14.398;2024-01-15T00:54:28;4.00;;;3.03;;
81367;SDS011;70823;50.056;14.398;2024-01-15T00:56:54;4.00;;;2.50;;
81367;SDS011;70823;50.056;14.398;2024-01-15T00:59:20;4.18;;;2.53;;
81367;SDS011;70823;50.056;14.398;2024-01-15T01:01:45;3.83;;;2.08;;
81367;SDS011;70823;50.056;14.398;2024-01-15T01:04:11;4.25;;;2.58;;
81367;SDS011;70823;50.056;14.398;2024-01-15T01:06:36;4.35;;;2.92;;
81367;SDS011;70823;50.056;14.398;2024-01-15T01:09:01;3.80;;;2.67;;
81367;SDS011;70823;50.056;14.398;2024-01-15T01:11:27;4.20;;;2.40;;
81367;SDS011;70823;50.056;14.398;2024-01-15T01:13:52;3.73;;;2.73;;
81367;SDS011;70823;50.056;14.398;2024-01-15T01:16:17;4.03;;;2.60;;
81367;SDS011;70823;50.056;14.398;2024-01-15T01:18:42;4.53;;;2.90;;
81367;SDS011;70823;50.056;14.398;2024-01-15T01:21:08;3.73;;;2.70;;
81367;SDS011;70823;50.056;14.398;2024-01-15T01:23:33;3.90;;;2.67;;
81367;SDS011;70823;50.056;14.398;2024-01-15T01:25:58;4.10;;;2.90;;
81367;SDS011;70823;50.056;14.398;2024-01-15T01:28:24;3.60;;;2.40;;
81367;SDS011;70823;50.056;14.398;2024-01-15T01:30:49;4.07;;;2.60;;
81367;SDS011;70823;50.056;14.398;2024-01-15T01:33:15;4.22;;;2.72;;
81367;SDS011;70823;50.056;14.398;2024-01-15T01:35:40;4.50;;;2.85;;
81367;SDS011;70823;50.056;14.398;2024-01-15T01:38:05;3.65;;;2.25;;
81367;SDS011;70823;50.056;14.398;2024-01-15T01:40:31;4.43;;;2.70;;
81367;SDS011;70823;50.056;14.398;2024-01-15T01:42:56;3.95;;;2.72;;
81367;SDS011;70823;50.056;14.398;2024-01-15T01:45:21;3.60;;;2.30;;
81367;SDS011;70823;50.056;14.398;2024-01-15T01:47:47;4.20;;;2.43;;
81367;SDS011;70823;50.056;14.398;2024-01-15T01:50:12;5.27;;;3.13;;
81367;SDS011;70823;50.056;14.398;2024-01-15T01:52:38;4.95;;;2.72;;
81367;SDS011;70823;50.056;14.398;2024-01-15T01:55:04;4.45;;;2.80;;
81367;SDS011;70823;50.056;14.398;2024-01-15T01:57:30;3.97;;;2.60;;
81367;SDS011;70823;50.056;14.398;2024-01-15T01:59:55;3.72;;;2.72;;
81367;SDS011;70823;50.056;14.398;2024-01-15T02:02:21;4.30;;;3.10;;
81367;SDS011;70823;50.056;14.398;2024-01-15T02:04:47;4.03;;;2.47;;
81367;SDS011;70823;50.056;14.398;2024-01-15T02:07:13;4.22;;;2.65;;
81367;SDS011;70823;50.056;14.398;2024-01-15T02:09:38;4.78;;;3.50;;
81367;SDS011;70823;50.056;14.398;2024-01-15T02:12:03;4.53;;;2.90;;
81367;SDS011;70823;50.056;14.398;2024-01-15T02:14:29;4.40;;;2.60;;
81367;SDS011;70823;50.056;14.398;2024-01-15T02:16:54;4.43;;;3.00;;
81367;SDS011;70823;50.056;14.398;2024-01-15T02:19:20;4.00;;;2.60;;
81367;SDS011;70823;50.056;14.398;2024-01-15T02:21:45;4.07;;;2.73;;
81367;SDS011;70823;50.056;14.398;2024-01-15T02:24:10;4.00;;;2.40;;
81367;SDS011;70823;50.056;14.398;2024-01-15T02:26:36;4.05;;;2.63;;
81367;SDS011;70823;50.056;14.398;2024-01-15T02:29:03;3.47;;;2.35;;
81367;SDS011;70823;50.056;14.398;2024-01-15T02:31:29;3.80;;;2.58;;
81367;SDS011;70823;50.056;14.398;2024-01-15T02:33:55;4.00;;;2.50;;
81367;SDS011;70823;50.056;14.398;2024-01-15T02:36:20;4.00;;;2.90;;
81367;SDS011;70823;50.056;14.398;2024-01-15T02:38:45;4.53;;;2.43;;
81367;SDS011;70823;50.056;14.398;2024-01-15T02:41:11;4.93;;;2.60;;
81367;SDS011;70823;50.056;14.398;2024-01-15T02:43:39;3.50;;;2.42;;
81367;SDS011;70823;50.056;14.398;2024-01-15T02:46:04;3.60;;;2.60;;
81367;SDS011;70823;50.056;14.398;2024-01-15T02:48:29;4.47;;;2.77;;
81367;SDS011;70823;50.056;14.398;2024-01-15T02:50:54;4.10;;;2.80;;
81367;SDS011;70823;50.056;14.398;2024-01-15T02:53:20;4.13;;;2.87;;
81367;SDS011;70823;50.056;14.398;2024-01-15T02:55:45;4.33;;;2.50;;
81367;SDS011;70823;50.056;14.398;2024-01-15T02:58:10;4.80;;;2.70;;
81367;SDS011;70823;50.056;14.398;2024-01-15T03:00:36;4.23;;;2.70;;
81367;SDS011;70823;50.056;14.398;2024-01-15T03:03:01;3.20;;;2.30;;
81367;SDS011;70823;50.056;14.398;2024-01-15T03:05:26;3.87;;;2.50;;
81367;SDS011;70823;50.056;14.398;2024-01-15T03:07:51;4.27;;;2.90;;
81367;SDS011;70823;50.056;14.398;2024-01-15T03:10:17;3.93;;;2.63;;
81367;SDS011;70823;50.056;14.398;2024-01-15T03:12:42;4.30;;;2.53;;
81367;SDS011;70823;50.056;14.398;2024-01-15T03:15:07;4.15;;;2.85;;
81367;SDS011;70823;50.056;14.398;2024-01-15T03:17:33;4.20;;;2.70;;
81367;SDS011;70823;50.056;14.398;2024-01-15T03:19:58;3.67;;;2.43;;
81367;SDS011;70823;50.056;14.398;2024-01-15T03:22:23;4.85;;;3.15;;
81367;SDS011;70823;50.056;14.398;2024-01-15T03:24:49;5.00;;;3.20;;
81367;SDS011;70823;50.056;14.398;2024-01-15T03:27:14;3.63;;;2.43;;
81367;SDS011;70823;50.056;14.398;2024-01-15T03:29:40;4.03;;;2.70;;
81367;SDS011;70823;50.056;14.398;2024-01-15T03:32:05;4.38;;;2.60;;
81367;SDS011;70823;50.056;14.398;2024-01-15T03:34:31;4.40;;;2.50;;
81367;SDS011;70823;50.056;14.398;2024-01-15T03:36:56;4.70;;;2.43;;
81367;SDS011;70823;50.056;14.398;2024-01-15T03:39:22;4.27;;;2.80;;
81367;SDS011;70823;50.056;14.398;2024-01-15T03:41:47;4.10;;;2.53;;
81367;SDS011;70823;50.056;14.398;2024-01-15T03:44:12;3.53;;;2.40;;
81367;SDS011;70823;50.056;14.398;2024-01-15T03:46:38;4.77;;;2.87;;
81367;SDS011;70823;50.056;14.398;2024-01-15T03:49:03;4.10;;;2.90;;
81367;SDS011;70823;50.056;14.398;2024-01-15T03:51:28;5.37;;;2.50;;
81367;SDS011;70823;50.056;14.398;2024-01-15T03:53:53;4.37;;;2.77;;
81367;SDS011;70823;50.056;14.398;2024-01-15T03:56:19;5.35;;;3.28;;
81367;SDS011;70823;50.056;14.398;2024-01-15T03:58:44;4.10;;;2.60;;
81367;SDS011;70823;50.056;14.398;2024-01-15T04:01:10;4.33;;;2.97;;
81367;SDS011;70823;50.056;14.398;2024-01-15T04:03:35;4.75;;;2.85;;
81367;SDS011;70823;50.056;14.398;2024-01-15T04:06:01;4.00;;;2.53;;
81367;SDS011;70823;50.056;14.398;2024-01-15T04:08:26;4.77;;;3.30;;
81367;SDS011;70823;50.056;14.398;2024-01-15T04:10:51;4.47;;;2.87;;
81367;SDS011;70823;50.056;14.398;2024-01-15T04:13:16;4.30;;;2.80;;
81367;SDS011;70823;50.056;14.398;2024-01-15T04:15:42;4.60;;;3.10;;
81367;SDS011;70823;50.056;14.398;2024-01-15T04:18:07;4.50;;;2.77;;
81367;SDS011;70823;50.056;14.398;2024-01-15T04:20:32;4.25;;;2.97;;
81367;SDS011;70823;50.056;14.398;2024-01-15T04:22:58;3.50;;;2.50;;
81367;SDS011;70823;50.056;14.398;2024-01-15T04:25:23;4.13;;;2.90;;
81367;SDS011;70823;50.056;14.398;2024-01-15T04:27:48;4.03;;;2.80;;
81367;SDS011;70823;50.056;14.398;2024-01-15T04:30:15;3.95;;;2.88;;
81367;SDS011;70823;50.056;14.398;2024-01-15T04:32:40;4.40;;;2.93;;
81367;SDS011;70823;50.056;14.398;2024-01-15T04:35:05;4.75;;;2.95;;
81367;SDS011;70823;50.056;14.398;2024-01-15T04:37:31;4.40;;;2.90;;
81367;SDS011;70823;50.056;14.398;2024-01-15T04:39:56;4.77;;;3.00;;
81367;SDS011;70823;50.056;14.398;2024-01-15T04:42:22;4.15;;;2.70;;
81367;SDS011;70823;50.056;14.398;2024-01-15T04:44:47;4.57;;;2.90;;
81367;SDS011;70823;50.056;14.398;2024-01-15T04:47:13;4.53;;;2.93;;
81367;SDS011;70823;50.056;14.398;2024-01-15T04:49:38;4.20;;;2.83;;
81367;SDS011;70823;50.056;14.398;2024-01-15T04:52:03;3.93;;;2.90;;
81367;SDS011;70823;50.056;14.398;2024-01-15T04:54:29;4.70;;;2.93;;
81367;SDS011;70823;50.056;14.398;2024-01-15T04:56:54;3.90;;;2.70;;
81367;SDS011;70823;50.056;14.398;2024-01-15T04:59:19;4.50;;;2.80;;
81367;SDS011;70823;50.056;14.398;2024-01-15T05:01:44;4.27;;;3.00;;
81367;SDS011;70823;50.056;14.398;2024-01-15T05:04:10;4.30;;;2.53;;
81367;SDS011;70823;50.056;14.398;2024-01-15T05:06:35;5.03;;;3.10;;
81367;SDS011;70823;50.056;14.398;2024-01-15T05:09:00;3.57;;;2.57;;
81367;SDS011;70823;50.056;14.398;2024-01-15T05:11:26;4.83;;;2.97;;
81367;SDS011;70823;50.056;14.398;2024-01-15T05:13:51;4.97;;;3.00;;
81367;SDS011;70823;50.056;14.398;2024-01-15T05:16:16;4.20;;;2.90;;
81367;SDS011;70823;50.056;14.398;2024-01-15T05:18:41;4.70;;;3.20;;
81367;SDS011;70823;50.056;14.398;2024-01-15T05:21:08;4.00;;;2.80;;
81367;SDS011;70823;50.056;14.398;2024-01-15T05:23:34;3.85;;;2.88;;
81367;SDS011;70823;50.056;14.398;2024-01-15T05:25:59;4.22;;;2.97;;
81367;SDS011;70823;50.056;14.398;2024-01-15T05:28:24;4.43;;;2.90;;
81367;SDS011;70823;50.056;14.398;2024-01-15T05:30:50;4.47;;;2.93;;
81367;SDS011;70823;50.056;14.398;2024-01-15T05:33:16;4.70;;;2.92;;
81367;SDS011;70823;50.056;14.398;2024-01-15T05:35:41;4.30;;;2.78;;
81367;SDS011;70823;50.056;14.398;2024-01-15T05:38:07;4.03;;;2.72;;
81367;SDS011;70823;50.056;14.398;2024-01-15T05:40:32;3.97;;;2.80;;
81367;SDS011;70823;50.056;14.398;2024-01-15T05:42:57;4.40;;;2.80;;
81367;SDS011;70823;50.056;14.398;2024-01-15T05:45:23;4.40;;;2.83;;
81367;SDS011;70823;50.056;14.398;2024-01-15T05:47:48;4.47;;;3.20;;
81367;SDS011;70823;50.056;14.398;2024-01-15T05:50:14;4.50;;;2.40;;
81367;SDS011;70823;50.056;14.398;2024-01-15T05:52:39;4.03;;;2.67;;
81367;SDS011;70823;50.056;14.398;2024-01-15T05:55:05;4.47;;;2.85;;
81367;SDS011;70823;50.056;14.398;2024-01-15T05:57:30;4.38;;;2.80;;
81367;SDS011;70823;50.056;14.398;2024-01-15T05:59:55;4.13;;;2.90;;
81367;SDS011;70823;50.056;14.398;2024-01-15T06:02:21;4.70;;;2.97;;
81367;SDS011;70823;50.056;14.398;2024-01-15T06:04:46;5.40;;;2.60;;
81367;SDS011;70823;50.056;14.398;2024-01-15T06:07:11;5.18;;;2.90;;
81367;SDS011;70823;50.056;14.398;2024-01-15T06:09:37;5.50;;;3.10;;
81367;SDS011;70823;50.056;14.398;2024-01-15T06:12:03;4.95;;;3.10;;
81367;SDS011;70823;50.056;14.398;2024-01-15T06:14:29;4.45;;;2.55;;
81367;SDS011;70823;50.056;14.398;2024-01-15T06:16:54;5.30;;;3.10;;
81367;SDS011;70823;50.056;14.398;2024-01-15T06:19:19;4.10;;;2.70;;
81367;SDS011;70823;50.056;14.398;2024-01-15T06:21:45;5.13;;;2.77;;
81367;SDS011;70823;50.056;14.398;2024-01-15T06:24:10;4.70;;;3.00;;
81367;SDS011;70823;50.056;14.398;2024-01-15T06:26:35;3.97;;;2.80;;
81367;SDS011;70823;50.056;14.398;2024-01-15T06:29:01;4.30;;;2.88;;
81367;SDS011;70823;50.056;14.398;2024-01-15T06:31:27;4.43;;;2.63;;
81367;SDS011;70823;50.056;14.398;2024-01-15T06:33:53;4.53;;;2.90;;
81367;SDS011;70823;50.056;14.398;2024-01-15T06:36:18;4.80;;;3.00;;
81367;SDS011;70823;50.056;14.398;2024-01-15T06:38:43;4.32;;;2.70;;
81367;SDS011;70823;50.056;14.398;2024-01-15T06:41:09;4.07;;;2.60;;
81367;SDS011;70823;50.056;14.398;2024-01-15T06:43:35;4.53;;;3.13;;
81367;SDS011;70823;50.056;14.398;2024-01-15T06:46:00;3.97;;;2.50;;
81367;SDS011;70823;50.056;14.398;2024-01-15T06:48:25;5.57;;;3.05;;
81367;SDS011;70823;50.056;14.398;2024-01-15T06:50:51;4.50;;;2.70;;
81367;SDS011;70823;50.056;14.398;2024-01-15T06:53:16;4.40;;;2.70;;
81367;SDS011;70823;50.056;14.398;2024-01-15T06:55:41;4.50;;;2.83;;
81367;SDS011;70823;50.056;14.398;2024-01-15T06:58:07;3.57;;;2.30;;
81367;SDS011;70823;50.056;14.398;2024-01-15T07:00:32;4.07;;;3.15;;
81367;SDS011;70823;50.056;14.398;2024-01-15T07:02:58;5.53;;;2.50;;
81367;SDS011;70823;50.056;14.398;2024-01-15T07:05:23;4.63;;;2.53;;
81367;SDS011;70823;50.056;14.398;2024-01-15T07:07:49;4.65;;;3.10;;
81367;SDS011;70823;50.056;14.398;2024-01-15T07:10:14;4.10;;;2.45;;
81367;SDS011;70823;50.056;14.398;2024-01-15T07:12:43;6.22;;;2.75;;
81367;SDS011;70823;50.056;14.398;2024-01-15T07:15:09;4.18;;;2.42;;
81367;SDS011;70823;50.056;14.398;2024-01-15T07:17:34;4.13;;;2.65;;
81367;SDS011;70823;50.056;14.398;2024-01-15T07:20:00;4.07;;;2.50;;
81367;SDS011;70823;50.056;14.398;2024-01-15T07:22:25;4.68;;;2.65;;
81367;SDS011;70823;50.056;14.398;2024-01-15T07:24:50;5.50;;;2.80;;
81367;SDS011;70823;50.056;14.398;2024-01-15T07:27:16;4.47;;;2.53;;
81367;SDS011;70823;50.056;14.398;2024-01-15T07:29:41;4.13;;;2.85;;
81367;SDS011;70823;50.056;14.398;2024-01-15T07:32:07;3.20;;;2.20;;
81367;SDS011;70823;50.056;14.398;2024-01-15T07:34:33;4.53;;;2.70;;
81367;SDS011;70823;50.056;14.398;2024-01-15T07:36:58;6.17;;;2.43;;
81367;SDS011;70823;50.056;14.398;2024-01-15T07:39:23;5.18;;;2.83;;
81367;SDS011;70823;50.056;14.398;2024-01-15T07:41:50;4.80;;;2.75;;
81367;SDS011;70823;50.056;14.398;2024-01-15T07:44:16;4.40;;;2.80;;
81367;SDS011;70823;50.056;14.398;2024-01-15T07:46:44;4.28;;;2.72;;
81367;SDS011;70823;50.056;14.398;2024-01-15T07:49:10;4.85;;;2.90;;
81367;SDS011;70823;50.056;14.398;2024-01-15T07:51:36;3.40;;;2.22;;
81367;SDS011;70823;50.056;14.398;2024-01-15T07:54:01;3.78;;;2.30;;
81367;SDS011;70823;50.056;14.398;2024-01-15T07:56:27;3.80;;;2.47;;
81367;SDS011;70823;50.056;14.398;2024-01-15T07:58:52;3.67;;;2.33;;
81367;SDS011;70823;50.056;14.398;2024-01-15T08:01:17;4.20;;;2.60;;
81367;SDS011;70823;50.056;14.398;2024-01-15T08:03:43;5.20;;;2.53;;
81367;SDS011;70823;50.056;14.398;2024-01-15T08:06:08;3.60;;;2.70;;
81367;SDS011;70823;50.056;14.398;2024-01-15T08:08:34;4.55;;;2.80;;
81367;SDS011;70823;50.056;14.398;2024-01-15T08:11:00;5.00;;;2.60;;
81367;SDS011;70823;50.056;14.398;2024-01-15T08:13:26;3.78;;;2.47;;
81367;SDS011;70823;50.056;14.398;2024-01-15T08:15:51;4.07;;;2.53;;
81367;SDS011;70823;50.056;14.398;2024-01-15T08:18:17;4.37;;;2.60;;
81367;SDS011;70823;50.056;14.398;2024-01-15T08:20:42;4.40;;;2.67;;
81367;SDS011;70823;50.056;14.398;2024-01-15T08:23:07;5.60;;;3.77;;
81367;SDS011;70823;50.056;14.398;2024-01-15T08:25:33;6.78;;;3.53;;
81367;SDS011;70823;50.056;14.398;2024-01-15T08:27:58;5.43;;;3.57;;
81367;SDS011;70823;50.056;14.398;2024-01-15T08:30:24;5.93;;;3.90;;
81367;SDS011;70823;50.056;14.398;2024-01-15T08:32:52;8.90;;;4.93;;
81367;SDS011;70823;50.056;14.398;2024-01-15T08:35:18;7.75;;;4.47;;
81367;SDS011;70823;50.056;14.398;2024-01-15T08:37:47;6.88;;;4.60;;
81367;SDS011;70823;50.056;14.398;2024-01-15T08:40:13;7.88;;;4.13;;
81367;SDS011;70823;50.056;14.398;2024-01-15T08:42:38;6.63;;;3.83;;
81367;SDS011;70823;50.056;14.398;2024-01-15T08:45:04;7.07;;;4.30;;
81367;SDS011;70823;50.056;14.398;2024-01-15T08:47:29;7.30;;;4.32;;
81367;SDS011;70823;50.056;14.398;2024-01-15T08:49:54;6.80;;;3.77;;
81367;SDS011;70823;50.056;14.398;2024-01-15T08:52:20;7.10;;;3.72;;
81367;SDS011;70823;50.056;14.398;2024-01-15T08:54:45;8.23;;;4.40;;
81367;SDS011;70823;50.056;14.398;2024-01-15T08:57:10;9.10;;;4.03;;
81367;SDS011;70823;50.056;14.398;2024-01-15T08:59:36;5.90;;;3.92;;
81367;SDS011;70823;50.056;14.398;2024-01-15T09:02:02;6.30;;;4.07;;
81367;SDS011;70823;50.056;14.398;2024-01-15T09:04:27;7.50;;;4.15;;
81367;SDS011;70823;50.056;14.398;2024-01-15T09:06:52;7.88;;;4.32;;
81367;SDS011;70823;50.056;14.398;2024-01-15T09:09:17;6.83;;;3.97;;
81367;SDS011;70823;50.056;14.398;2024-01-15T09:11:43;12.30;;;4.10;;
81367;SDS011;70823;50.056;14.398;2024-01-15T09:14:08;7.83;;;3.80;;
81367;SDS011;70823;50.056;14.398;2024-01-15T09:16:34;8.20;;;3.47;;
81367;SDS011;70823;50.056;14.398;2024-01-15T09:18:59;6.13;;;3.53;;
81367;SDS011;70823;50.056;14.398;2024-01-15T09:21:25;5.82;;;3.60;;
81367;SDS011;70823;50.056;14.398;2024-01-15T09:23:50;7.35;;;3.95;;
81367;SDS011;70823;50.056;14.398;2024-01-15T09:26:16;6.85;;;4.22;;
81367;SDS011;70823;50.056;14.398;2024-01-15T09:28:41;6.78;;;4.07;;
81367;SDS011;70823;50.056;14.398;2024-01-15T09:31:07;6.80;;;3.78;;
81367;SDS011;70823;50.056;14.398;2024-01-15T09:33:32;7.35;;;3.45;;
81367;SDS011;70823;50.056;14.398;2024-01-15T09:36:00;7.47;;;4.03;;
81367;SDS011;70823;50.056;14.398;2024-01-15T09:38:26;7.18;;;3.70;;
81367;SDS011;70823;50.056;14.398;2024-01-15T09:40:52;7.03;;;3.60;;
81367;SDS011;70823;50.056;14.398;2024-01-15T09:43:17;5.13;;;3.25;;
81367;SDS011;70823;50.056;14.398;2024-01-15T09:45:43;5.72;;;3.28;;
81367;SDS011;70823;50.056;14.398;2024-01-15T09:48:09;4.40;;;3.03;;
81367;SDS011;70823;50.056;14.398;2024-01-15T09:50:34;6.28;;;3.42;;
81367;SDS011;70823;50.056;14.398;2024-01-15T09:52:59;4.90;;;2.67;;
81367;SDS011;70823;50.056;14.398;2024-01-15T09:55:25;6.35;;;3.20;;
81367;SDS011;70823;50.056;14.398;2024-01-15T09:57:51;5.15;;;3.38;;
81367;SDS011;70823;50.056;14.398;2024-01-15T10:00:17;5.22;;;2.80;;
81367;SDS011;70823;50.056;14.398;2024-01-15T10:02:43;5.75;;;3.15;;
81367;SDS011;70823;50.056;14.398;2024-01-15T10:05:09;6.33;;;2.80;;
81367;SDS011;70823;50.056;14.398;2024-01-15T10:07:35;4.55;;;3.03;;
81367;SDS011;70823;50.056;14.398;2024-01-15T10:10:01;4.13;;;3.03;;
81367;SDS011;70823;50.056;14.398;2024-01-15T10:12:28;4.07;;;2.67;;
81367;SDS011;70823;50.056;14.398;2024-01-15T10:14:53;5.60;;;3.00;;
81367;SDS011;70823;50.056;14.398;2024-01-15T10:17:19;3.90;;;2.43;;
81367;SDS011;70823;50.056;14.398;2024-01-15T10:19:47;5.13;;;2.70;;
81367;SDS011;70823;50.056;14.398;2024-01-15T10:22:13;4.43;;;2.72;;
81367;SDS011;70823;50.056;14.398;2024-01-15T10:24:40;4.70;;;2.50;;
81367;SDS011;70823;50.056;14.398;2024-01-15T10:27:06;4.55;;;2.70;;
81367;SDS011;70823;50.056;14.398;2024-01-15T10:29:32;4.15;;;2.50;;
81367;SDS011;70823;50.056;14.398;2024-01-15T10:31:57;4.47;;;2.50;;
81367;SDS011;70823;50.056;14.398;2024-01-15T10:34:22;4.35;;;2.60;;
81367;SDS011;70823;50.056;14.398;2024-01-15T10:36:49;5.33;;;3.00;;
81367;SDS011;70823;50.056;14.398;2024-01-15T10:39:20;4.22;;;2.63;;
81367;SDS011;70823;50.056;14.398;2024-01-15T10:41:45;4.33;;;2.63;;
81367;SDS011;70823;50.056;14.398;2024-01-15T10:44:10;4.27;;;2.60;;
81367;SDS011;70823;50.056;14.398;2024-01-15T10:46:36;4.10;;;2.50;;
81367;SDS011;70823;50.056;14.398;2024-01-15T10:49:01;4.13;;;2.80;;
81367;SDS011;70823;50.056;14.398;2024-01-15T10:51:27;5.67;;;2.60;;
81367;SDS011;70823;50.056;14.398;2024-01-15T10:53:52;4.90;;;2.63;;
81367;SDS011;70823;50.056;14.398;2024-01-15T10:56:18;3.95;;;2.40;;
81367;SDS011;70823;50.056;14.398;2024-01-15T10:58:44;3.90;;;2.53;;
81367;SDS011;70823;50.056;14.398;2024-01-15T11:01:10;4.75;;;2.40;;
81367;SDS011;70823;50.056;14.398;2024-01-15T11:03:36;4.10;;;2.30;;
81367;SDS011;70823;50.056;14.398;2024-01-15T11:06:01;4.37;;;2.37;;
81367;SDS011;70823;50.056;14.398;2024-01-15T11:08:28;4.38;;;2.75;;
81367;SDS011;70823;50.056;14.398;2024-01-15T11:10:54;3.47;;;2.10;;
81367;SDS011;70823;50.056;14.398;2024-01-15T11:18:26;3.10;;;2.15;;
81367;SDS011;70823;50.056;14.398;2024-01-15T11:26:31;3.78;;;2.38;;
81367;SDS011;70823;50.056;14.398;2024-01-15T11:29:10;4.30;;;2.33;;
81367;SDS011;70823;50.056;14.398;2024-01-15T11:37:19;3.75;;;2.55;;
81367;SDS011;70823;50.056;14.398;2024-01-15T11:39:44;3.80;;;2.20;;
81367;SDS011;70823;50.056;14.398;2024-01-15T11:42:11;5.35;;;2.25;;
81367;SDS011;70823;50.056;14.398;2024-01-15T11:44:37;3.97;;;2.40;;
81367;SDS011;70823;50.056;14.398;2024-01-15T11:47:03;3.60;;;2.47;;
81367;SDS011;70823;50.056;14.398;2024-01-15T11:52:07;3.63;;;2.20;;
81367;SDS011;70823;50.056;14.398;2024-01-15T11:54:37;3.65;;;2.28;;
81367;SDS011;70823;50.056;14.398;2024-01-15T11:57:04;3.53;;;2.25;;
81367;SDS011;70823;50.056;14.398;2024-01-15T11:59:34;3.20;;;2.00;;
81367;SDS011;70823;50.056;14.398;2024-01-15T12:02:00;3.67;;;2.10;;
81367;SDS011;70823;50.056;14.398;2024-01-15T12:04:25;3.30;;;2.20;;
81367;SDS011;70823;50.056;14.398;2024-01-15T12:06:51;3.38;;;2.33;;
81367;SDS011;70823;50.056;14.398;2024-01-15T12:09:19;4.67;;;2.17;;
81367;SDS011;70823;50.056;14.398;2024-01-15T12:11:45;3.88;;;2.15;;
81367;SDS011;70823;50.056;14.398;2024-01-15T12:14:14;3.30;;;2.33;;
81367;SDS011;70823;50.056;14.398;2024-01-15T12:16:39;4.07;;;2.50;;
81367;SDS011;70823;50.056;14.398;2024-01-15T12:19:05;3.40;;;2.10;;
81367;SDS011;70823;50.056;14.398;2024-01-15T12:21:31;3.38;;;2.33;;
81367;SDS011;70823;50.056;14.398;2024-01-15T12:23:56;3.30;;;2.17;;
81367;SDS011;70823;50.056;14.398;2024-01-15T12:26:21;3.83;;;2.23;;
81367;SDS011;70823;50.056;14.398;2024-01-15T12:28:47;3.25;;;2.17;;
81367;SDS011;70823;50.056;14.398;2024-01-15T12:33:40;2.90;;;1.80;;
81367;SDS011;70823;50.056;14.398;2024-01-15T12:36:05;3.00;;;1.90;;
81367;SDS011;70823;50.056;14.398;2024-01-15T12:38:31;3.20;;;2.00;;
81367;SDS011;70823;50.056;14.398;2024-01-15T12:40:57;3.53;;;2.10;;
81367;SDS011;70823;50.056;14.398;2024-01-15T12:43:22;3.13;;;2.27;;
81367;SDS011;70823;50.056;14.398;2024-01-15T12:45:47;3.70;;;2.10;;
81367;SDS011;70823;50.056;14.398;2024-01-15T12:48:12;4.18;;;2.08;;
81367;SDS011;70823;50.056;14.398;2024-01-15T12:50:42;3.25;;;1.95;;
81367;SDS011;70823;50.056;14.398;2024-01-15T12:53:08;3.97;;;1.80;;
81367;SDS011;70823;50.056;14.398;2024-01-15T12:55:33;4.03;;;2.20;;
81367;SDS011;70823;50.056;14.398;2024-01-15T12:57:59;3.65;;;2.28;;
81367;SDS011;70823;50.056;14.398;2024-01-15T13:00:24;3.78;;;2.20;;
81367;SDS011;70823;50.056;14.398;2024-01-15T13:02:50;3.53;;;2.13;;
81367;SDS011;70823;50.056;14.398;2024-01-15T13:05:16;3.58;;;2.30;;
81367;SDS011;70823;50.056;14.398;2024-01-15T13:07:42;3.47;;;2.40;;
81367;SDS011;70823;50.056;14.398;2024-01-15T13:10:07;4.18;;;2.30;;
81367;SDS011;70823;50.056;14.398;2024-01-15T13:12:34;3.72;;;2.03;;
81367;SDS011;70823;50.056;14.398;2024-01-15T13:14:59;3.90;;;2.08;;
81367;SDS011;70823;50.056;14.398;2024-01-15T13:17:28;4.05;;;2.30;;
81367;SDS011;70823;50.056;14.398;2024-01-15T13:19:53;3.70;;;2.03;;
81367;SDS011;70823;50.056;14.398;2024-01-15T13:22:18;5.03;;;2.40;;
81367;SDS011;70823;50.056;14.398;2024-01-15T13:24:44;3.70;;;2.20;;
81367;SDS011;70823;50.056;14.398;2024-01-15T13:27:11;3.05;;;2.00;;
81367;SDS011;70823;50.056;14.398;2024-01-15T13:29:36;2.95;;;2.00;;
81367;SDS011;70823;50.056;14.398;2024-01-15T13:32:02;4.22;;;2.30;;
81367;SDS011;70823;50.056;14.398;2024-01-15T13:34:28;4.00;;;2.60;;
81367;SDS011;70823;50.056;14.398;2024-01-15T13:36:53;4.05;;;2.50;;
81367;SDS011;70823;50.056;14.398;2024-01-15T13:39:19;4.47;;;2.43;;
81367;SDS011;70823;50.056;14.398;2024-01-15T13:41:48;3.22;;;2.00;;
81367;SDS011;70823;50.056;14.398;2024-01-15T13:44:14;3.80;;;2.20;;
81367;SDS011;70823;50.056;14.398;2024-01-15T13:46:39;3.17;;;2.00;;
81367;SDS011;70823;50.056;14.398;2024-01-15T13:49:05;3.40;;;2.20;;
81367;SDS011;70823;50.056;14.398;2024-01-15T13:51:31;3.83;;;2.25;;
81367;SDS011;70823;50.056;14.398;2024-01-15T13:53:56;2.92;;;1.90;;
81367;SDS011;70823;50.056;14.398;2024-01-15T13:56:22;4.90;;;2.10;;
81367;SDS011;70823;50.056;14.398;2024-01-15T13:58:47;3.63;;;2.03;;
81367;SDS011;70823;50.056;14.398;2024-01-15T14:01:13;4.53;;;2.30;;
81367;SDS011;70823;50.056;14.398;2024-01-15T14:03:38;2.80;;;1.77;;
81367;SDS011;70823;50.056;14.398;2024-01-15T14:06:03;3.93;;;1.97;;
81367;SDS011;70823;50.056;14.398;2024-01-15T14:08:33;4.78;;;2.28;;
81367;SDS011;70823;50.056;14.398;2024-01-15T14:10:58;2.77;;;1.80;;
81367;SDS011;70823;50.056;14.398;2024-01-15T14:13:24;3.33;;;2.20;;
81367;SDS011;70823;50.056;14.398;2024-01-15T14:15:49;3.47;;;2.13;;
81367;SDS011;70823;50.056;14.398;2024-01-15T14:18:15;5.00;;;2.33;;
81367;SDS011;70823;50.056;14.398;2024-01-15T14:20:41;3.97;;;2.30;;
81367;SDS011;70823;50.056;14.398;2024-01-15T14:23:07;4.32;;;2.28;;
81367;SDS011;70823;50.056;14.398;2024-01-15T14:25:32;5.80;;;1.93;;
81367;SDS011;70823;50.056;14.398;2024-01-15T14:27:58;6.18;;;2.05;;
81367;SDS011;70823;50.056;14.398;2024-01-15T14:30:23;6.00;;;2.17;;
81367;SDS011;70823;50.056;14.398;2024-01-15T14:32:49;3.80;;;2.00;;
81367;SDS011;70823;50.056;14.398;2024-01-15T14:35:14;3.50;;;2.10;;
81367;SDS011;70823;50.056;14.398;2024-01-15T14:37:39;4.17;;;2.00;;
81367;SDS011;70823;50.056;14.398;2024-01-15T14:40:08;4.05;;;2.13;;
81367;SDS011;70823;50.056;14.398;2024-01-15T14:42:35;3.58;;;2.03;;
81367;SDS011;70823;50.056;14.398;2024-01-15T14:45:01;3.40;;;1.83;;